createdAt,value
2018-12-10T00:00:27.280Z,99.90
2018-12-10T00:03:01.976Z,99.90
2018-12-10T00:05:31.647Z,99.90
2018-12-10T00:08:01.300Z,99.90
2018-12-10T00:10:30.880Z,99.90
2018-12-10T00:13:00.367Z,99.90
2018-12-10T00:15:29.809Z,99.90
2018-12-10T00:17:59.275Z,99.90
2018-12-10T00:20:28.891Z,99.90
2018-12-10T00:22:58.502Z,99.90
2018-12-10T00:25:28.018Z,99.90
2018-12-10T00:27:57.474Z,99.90
2018-12-10T00:30:26.976Z,99.90
2018-12-10T00:32:56.433Z,99.90
2018-12-10T00:35:25.889Z,99.90
2018-12-10T00:37:55.410Z,99.90
2018-12-10T00:40:24.883Z,99.90
2018-12-10T00:42:54.326Z,99.90
2018-12-10T00:45:23.884Z,99.90
2018-12-10T00:47:53.316Z,99.90
2018-12-10T00:50:22.763Z,99.90
2018-12-10T00:52:52.562Z,99.90
2018-12-10T00:55:22.223Z,99.90
2018-12-10T00:57:52.018Z,99.90
2018-12-10T01:00:21.531Z,99.90
2018-12-10T01:02:51.138Z,99.90
2018-12-10T01:05:20.605Z,99.90
2018-12-10T01:07:50.165Z,99.90
2018-12-10T01:10:19.849Z,99.90
2018-12-10T01:12:49.452Z,99.90
2018-12-10T01:15:18.909Z,99.90
2018-12-10T01:17:48.355Z,99.90
2018-12-10T01:20:17.912Z,99.90
2018-12-10T01:22:47.379Z,99.90
2018-12-10T01:25:17.022Z,99.90
2018-12-10T01:27:46.578Z,99.90
2018-12-10T01:30:16.348Z,99.90
2018-12-10T01:32:45.850Z,99.90
2018-12-10T01:35:15.312Z,99.90
2018-12-10T01:37:44.895Z,99.90
2018-12-10T01:40:14.331Z,99.90
2018-12-10T01:42:43.897Z,99.90
2018-12-10T01:45:13.378Z,99.90
2018-12-10T01:47:42.854Z,99.90
2018-12-10T01:50:12.415Z,99.90
2018-12-10T01:52:41.893Z,99.90
2018-12-10T01:55:11.365Z,99.90
2018-12-10T01:57:40.850Z,99.90
2018-12-10T02:00:10.636Z,99.90
2018-12-10T02:02:40.343Z,99.90
2018-12-10T02:05:10.115Z,99.90
2018-12-10T02:07:39.805Z,99.90
2018-12-10T02:10:10.131Z,99.90
2018-12-10T02:12:39.587Z,99.90
2018-12-10T02:15:09.206Z,99.90
2018-12-10T02:17:38.643Z,99.90
2018-12-10T02:20:08.243Z,99.90
2018-12-10T02:22:38.084Z,99.90
2018-12-10T02:25:07.554Z,99.90
2018-12-10T02:27:37.000Z,99.90
2018-12-10T02:30:06.755Z,99.90
2018-12-10T02:32:36.287Z,99.90
2018-12-10T02:35:05.976Z,99.90
2018-12-10T02:37:35.492Z,99.90
2018-12-10T02:40:05.719Z,99.90
2018-12-10T02:42:35.221Z,99.90
2018-12-10T02:45:06.119Z,99.90
2018-12-10T02:47:35.555Z,99.90
2018-12-10T02:50:05.985Z,99.90
2018-12-10T02:52:35.466Z,99.90
2018-12-10T02:55:05.734Z,99.90
2018-12-10T02:57:35.192Z,99.90
2018-12-10T03:00:05.330Z,99.90
2018-12-10T03:02:34.871Z,99.90
2018-12-10T03:05:04.465Z,99.90
2018-12-10T03:07:33.969Z,99.90
2018-12-10T03:10:03.716Z,99.90
2018-12-10T03:12:33.199Z,99.90
2018-12-10T03:15:02.710Z,99.90
2018-12-10T03:17:32.240Z,99.90
2018-12-10T03:20:01.720Z,99.90
2018-12-10T03:22:31.353Z,99.90
2018-12-10T03:25:00.941Z,99.90
2018-12-10T03:27:30.486Z,99.90
2018-12-10T03:30:00.033Z,99.90
2018-12-10T03:32:29.462Z,99.90
2018-12-10T03:34:58.975Z,99.90
2018-12-10T03:37:28.520Z,99.90
2018-12-10T03:39:58.304Z,99.90
2018-12-10T03:42:27.885Z,99.90
2018-12-10T03:44:57.441Z,99.90
2018-12-10T03:47:27.011Z,99.90
2018-12-10T03:49:56.594Z,99.90
2018-12-10T03:52:26.072Z,99.90
2018-12-10T03:54:55.717Z,99.90
2018-12-10T03:57:25.171Z,99.90
2018-12-10T03:59:54.611Z,99.90
2018-12-10T04:02:24.289Z,99.90
2018-12-10T04:04:53.801Z,99.90
2018-12-10T04:07:23.329Z,99.90
2018-12-10T04:09:52.782Z,99.90
2018-12-10T04:12:22.244Z,99.90
2018-12-10T04:14:51.713Z,99.90
2018-12-10T04:17:21.225Z,99.90
2018-12-10T04:19:50.687Z,99.90
2018-12-10T04:22:20.148Z,99.90
2018-12-10T04:24:49.690Z,99.90
2018-12-10T04:27:19.156Z,99.90
2018-12-10T04:29:48.681Z,99.90
2018-12-10T04:32:18.171Z,99.90
2018-12-10T04:34:47.601Z,99.90
2018-12-10T04:37:17.391Z,99.90
2018-12-10T04:39:46.876Z,99.90
2018-12-10T04:42:16.354Z,99.90
2018-12-10T04:44:45.868Z,99.90
2018-12-10T04:47:15.394Z,99.90
2018-12-10T04:49:44.908Z,99.90
2018-12-10T04:52:14.436Z,99.90
2018-12-10T04:54:43.873Z,99.90
2018-12-10T04:57:13.435Z,99.90
2018-12-10T04:59:42.922Z,99.90
2018-12-10T05:02:12.494Z,99.90
2018-12-10T05:04:42.066Z,99.90
2018-12-10T05:07:11.548Z,99.90
2018-12-10T05:09:41.034Z,99.90
2018-12-10T05:12:10.834Z,99.90
2018-12-10T05:14:40.275Z,99.90
2018-12-10T05:17:09.974Z,99.90
2018-12-10T05:19:39.515Z,99.90
2018-12-10T05:22:09.149Z,99.90
2018-12-10T05:24:38.604Z,99.90
2018-12-10T05:27:08.048Z,99.90
2018-12-10T05:29:37.529Z,99.90
2018-12-10T05:32:07.131Z,99.90
2018-12-10T05:34:39.788Z,99.90
2018-12-10T05:37:09.223Z,99.90
2018-12-10T05:39:38.719Z,99.90
2018-12-10T05:42:08.164Z,99.90
2018-12-10T05:44:37.833Z,99.90
2018-12-10T05:47:07.301Z,99.90
2018-12-10T05:49:36.820Z,99.90
2018-12-10T05:52:06.383Z,99.90
2018-12-10T05:54:35.858Z,99.90
2018-12-10T05:57:05.546Z,99.90
2018-12-10T05:59:35.051Z,99.90
2018-12-10T06:02:04.519Z,99.90
2018-12-10T06:04:34.053Z,99.90
2018-12-10T06:07:03.550Z,99.90
2018-12-10T06:09:33.176Z,99.90
2018-12-10T06:12:03.211Z,99.90
2018-12-10T06:14:32.711Z,99.90
2018-12-10T06:17:02.258Z,99.90
2018-12-10T06:19:31.928Z,99.90
2018-12-10T06:22:01.418Z,99.90
2018-12-10T06:24:30.925Z,99.90
2018-12-10T06:27:00.396Z,99.90
2018-12-10T06:29:29.850Z,99.90
2018-12-10T06:31:59.302Z,99.90
2018-12-10T06:34:28.779Z,99.90
2018-12-10T06:36:58.250Z,99.90
2018-12-10T06:39:27.871Z,99.90
2018-12-10T06:41:57.481Z,99.90
2018-12-10T06:44:27.084Z,99.90
2018-12-10T06:46:56.603Z,99.90
2018-12-10T06:49:26.086Z,99.90
2018-12-10T06:51:55.632Z,99.90
2018-12-10T06:54:25.091Z,99.90
2018-12-10T06:56:54.536Z,99.90
2018-12-10T06:59:23.999Z,99.90
2018-12-10T07:01:54.222Z,99.90
2018-12-10T07:04:23.829Z,99.90
2018-12-10T07:06:53.303Z,99.90
2018-12-10T07:09:22.773Z,99.90
2018-12-10T07:11:52.227Z,99.90
2018-12-10T07:14:21.795Z,99.90
2018-12-10T07:16:51.266Z,99.90
2018-12-10T07:19:20.746Z,99.90
2018-12-10T07:21:50.371Z,99.90
2018-12-10T07:24:19.806Z,99.90
2018-12-10T07:26:49.272Z,99.90
2018-12-10T07:29:18.722Z,99.90
2018-12-10T07:31:48.199Z,99.90
2018-12-10T07:34:17.643Z,99.90
2018-12-10T07:36:47.223Z,99.90
2018-12-10T07:39:16.714Z,99.90
2018-12-10T07:41:46.222Z,99.90
2018-12-10T07:44:15.656Z,99.90
2018-12-10T07:46:45.152Z,99.90
2018-12-10T07:49:15.244Z,99.90
2018-12-10T07:51:44.960Z,99.90
2018-12-10T07:54:14.465Z,99.90
2018-12-10T07:56:43.997Z,99.90
2018-12-10T07:59:13.431Z,99.90
2018-12-10T08:01:43.393Z,99.90
2018-12-10T08:04:13.170Z,99.90
2018-12-10T08:06:42.671Z,99.90
2018-12-10T08:09:12.220Z,99.90
2018-12-10T08:11:41.732Z,99.90
2018-12-10T08:14:11.291Z,99.90
2018-12-10T08:16:40.802Z,99.90
2018-12-10T08:19:10.294Z,99.90
2018-12-10T08:21:39.823Z,99.90
2018-12-10T08:24:09.374Z,99.90
2018-12-10T08:26:38.857Z,99.90
2018-12-10T08:29:08.469Z,99.90
2018-12-10T08:31:37.978Z,99.90
2018-12-10T08:34:07.764Z,99.90
2018-12-10T08:36:37.303Z,99.90
2018-12-10T08:39:08.548Z,99.90
2018-12-10T08:41:37.976Z,99.60
2018-12-10T08:44:08.438Z,99.90
2018-12-10T08:46:37.989Z,98.40
2018-12-10T08:49:07.474Z,97.10
2018-12-10T08:51:36.992Z,92.10
2018-12-10T08:54:12.772Z,87.80
2018-12-10T08:56:42.427Z,83.70
2018-12-10T08:59:11.948Z,79.50
2018-12-10T09:01:41.540Z,79.10
2018-12-10T09:04:11.152Z,80.50
2018-12-10T09:06:40.615Z,83.60
2018-12-10T09:09:10.075Z,85.10
2018-12-10T09:11:39.762Z,86.20
2018-12-10T09:14:09.250Z,88.00
2018-12-10T09:16:38.731Z,89.80
2018-12-10T09:19:08.371Z,90.20
2018-12-10T09:21:38.120Z,90.90
2018-12-10T09:24:07.753Z,91.10
2018-12-10T09:26:37.212Z,90.10
2018-12-10T09:29:06.780Z,87.20
2018-12-10T09:31:36.299Z,85.30
2018-12-10T09:34:05.957Z,87.90
2018-12-10T09:36:35.409Z,88.10
2018-12-10T09:39:07.333Z,89.10
2018-12-10T09:41:36.866Z,90.00
2018-12-10T09:44:06.442Z,90.90
2018-12-10T09:46:35.959Z,91.30
2018-12-10T09:49:05.574Z,91.20
2018-12-10T09:51:35.114Z,92.00
2018-12-10T09:54:04.790Z,91.80
2018-12-10T09:56:34.347Z,93.50
2018-12-10T09:59:06.975Z,93.30
2018-12-10T10:01:36.649Z,94.50
2018-12-10T10:04:06.199Z,94.80
2018-12-10T10:06:35.775Z,96.20
2018-12-10T10:09:07.546Z,96.90
2018-12-10T10:11:37.630Z,96.00
2018-12-10T10:14:07.208Z,96.50
2018-12-10T10:16:36.845Z,97.00
2018-12-10T10:19:06.295Z,97.80
2018-12-10T10:21:35.969Z,96.80
2018-12-10T10:24:05.736Z,96.30
2018-12-10T10:26:35.247Z,96.20
2018-12-10T10:29:04.708Z,96.00
2018-12-10T10:31:34.166Z,96.30
2018-12-10T10:34:03.651Z,95.00
2018-12-10T10:36:33.121Z,93.10
2018-12-10T10:39:03.857Z,88.70
2018-12-10T10:41:33.343Z,78.40
2018-12-10T10:44:02.831Z,72.90
2018-12-10T10:46:32.403Z,65.70
2018-12-10T10:49:02.027Z,65.40
2018-12-10T10:51:31.674Z,67.10
2018-12-10T10:54:01.195Z,67.40
2018-12-10T10:56:30.744Z,71.00
2018-12-10T10:59:00.257Z,74.00
2018-12-10T11:03:18.647Z,78.70
2018-12-10T11:05:48.363Z,82.10
2018-12-10T11:08:18.174Z,85.90
2018-12-10T11:10:48.205Z,89.70
2018-12-10T11:13:17.696Z,90.50
2018-12-10T11:15:47.458Z,92.50
2018-12-10T11:18:17.316Z,93.20
2018-12-10T11:20:46.807Z,93.60
2018-12-10T11:23:16.514Z,94.10
2018-12-10T11:25:46.123Z,94.30
2018-12-10T11:28:15.575Z,92.90
2018-12-10T11:30:45.051Z,92.70
2018-12-10T11:33:14.661Z,91.90
2018-12-10T11:35:44.261Z,92.30
2018-12-10T11:38:13.717Z,92.60
2018-12-10T11:40:43.278Z,92.20
2018-12-10T11:43:12.757Z,91.80
2018-12-10T11:45:42.242Z,93.00
2018-12-10T11:48:11.762Z,93.30
2018-12-10T11:50:41.260Z,93.90
2018-12-10T11:53:10.716Z,93.20
2018-12-10T11:55:40.230Z,92.40
2018-12-10T11:58:14.336Z,91.00
2018-12-10T12:00:44.137Z,90.60
2018-12-10T12:03:13.582Z,90.60
2018-12-10T12:05:43.247Z,88.60
2018-12-10T12:08:12.834Z,89.40
2018-12-10T12:10:42.311Z,90.40
2018-12-10T12:13:12.154Z,89.60
2018-12-10T12:15:41.691Z,90.60
2018-12-10T12:18:11.239Z,90.60
2018-12-10T12:20:40.737Z,90.40
2018-12-10T12:23:10.282Z,90.90
2018-12-10T12:25:39.779Z,90.00
2018-12-10T12:28:09.390Z,91.20
2018-12-10T12:30:39.107Z,92.50
2018-12-10T12:33:08.855Z,93.10
2018-12-10T12:35:38.441Z,93.40
2018-12-10T12:38:08.058Z,93.70
2018-12-10T12:40:37.521Z,94.50
2018-12-10T12:43:15.786Z,93.90
2018-12-10T12:45:38.813Z,94.20
2018-12-10T12:48:08.259Z,94.50
2018-12-10T12:50:37.721Z,94.70
2018-12-10T12:53:07.473Z,94.70
2018-12-10T12:55:41.871Z,95.40
2018-12-10T12:58:11.359Z,96.10
2018-12-10T13:00:42.058Z,96.60
2018-12-10T13:03:12.030Z,97.10
2018-12-10T13:05:41.903Z,97.00
2018-12-10T13:08:14.413Z,96.70
2018-12-10T13:10:44.190Z,97.20
2018-12-10T13:13:13.739Z,97.30
2018-12-10T13:15:43.440Z,97.60
2018-12-10T13:18:12.929Z,97.80
2018-12-10T13:20:42.580Z,98.60
2018-12-10T13:23:12.123Z,98.90
2018-12-10T13:25:41.838Z,99.40
2018-12-10T13:28:11.675Z,99.80
2018-12-10T13:30:41.176Z,99.90
2018-12-10T13:33:10.776Z,99.60
2018-12-10T13:35:40.473Z,99.80
2018-12-10T13:38:12.567Z,99.90
2018-12-10T13:40:41.755Z,99.90
2018-12-10T13:43:11.334Z,99.90
2018-12-10T13:45:41.164Z,99.90
2018-12-10T13:48:11.264Z,99.20
2018-12-10T13:50:40.868Z,99.80
2018-12-10T13:53:10.402Z,99.90
2018-12-10T13:55:39.990Z,99.90
2018-12-10T13:58:10.558Z,99.90
2018-12-10T14:00:40.047Z,99.90
2018-12-10T14:03:09.693Z,99.90
2018-12-10T14:05:39.316Z,99.90
2018-12-10T14:08:08.797Z,99.90
2018-12-10T14:10:44.737Z,99.90
2018-12-10T14:13:14.959Z,99.90
2018-12-10T14:15:44.555Z,99.90
2018-12-10T14:18:14.090Z,99.90
2018-12-10T14:20:43.683Z,99.70
2018-12-10T14:23:13.202Z,99.90
2018-12-10T14:25:42.905Z,99.90
2018-12-10T14:28:12.541Z,99.90
2018-12-10T14:30:43.017Z,99.90
2018-12-10T14:33:12.493Z,99.90
2018-12-10T14:35:42.014Z,99.90
2018-12-10T14:38:11.745Z,99.90
2018-12-10T14:40:41.283Z,99.90
2018-12-10T14:43:10.833Z,99.90
2018-12-10T14:45:44.032Z,99.90
2018-12-10T14:48:13.559Z,99.90
2018-12-10T14:50:43.041Z,99.90
2018-12-10T14:53:12.651Z,99.90
2018-12-10T14:55:42.195Z,99.90
2018-12-10T14:58:11.798Z,99.90
2018-12-10T15:00:41.261Z,99.90
2018-12-10T15:03:10.975Z,99.90
2018-12-10T15:05:40.724Z,99.90
2018-12-10T15:08:10.421Z,99.90
2018-12-10T15:10:39.995Z,99.90
2018-12-10T15:13:09.842Z,99.90
2018-12-10T15:15:39.370Z,99.90
2018-12-10T15:18:08.852Z,99.90
2018-12-10T15:20:38.491Z,99.90
2018-12-10T15:23:08.175Z,99.90
2018-12-10T15:25:37.717Z,99.90
2018-12-10T15:28:07.372Z,99.90
2018-12-10T15:30:37.203Z,99.90
2018-12-10T15:33:06.903Z,99.90
2018-12-10T15:35:36.448Z,99.90
2018-12-10T15:38:06.119Z,99.90
2018-12-10T15:40:35.848Z,99.90
2018-12-10T15:43:05.434Z,99.90
2018-12-10T15:45:34.949Z,99.90
2018-12-10T15:48:04.434Z,99.90
2018-12-10T15:50:33.914Z,99.90
2018-12-10T15:53:03.372Z,99.90
2018-12-10T15:55:32.839Z,99.90
2018-12-10T15:58:02.555Z,99.90
2018-12-10T16:00:32.205Z,99.90
2018-12-10T16:03:02.083Z,99.90
2018-12-10T16:05:31.729Z,99.90
2018-12-10T16:08:01.209Z,99.90
2018-12-10T16:10:31.102Z,99.90
2018-12-10T16:13:00.570Z,99.90
2018-12-10T16:15:30.099Z,99.90
2018-12-10T16:17:59.641Z,99.90
2018-12-10T16:20:29.378Z,99.90
2018-12-10T16:22:59.418Z,99.90
2018-12-10T16:25:28.974Z,99.90
2018-12-10T16:27:58.542Z,99.90
2018-12-10T16:30:28.569Z,99.90
2018-12-10T16:32:58.275Z,99.90
2018-12-10T16:35:35.206Z,99.90
2018-12-10T16:38:05.799Z,99.90
2018-12-10T16:40:35.509Z,99.90
2018-12-10T16:43:04.999Z,99.90
2018-12-10T16:45:34.477Z,99.90
2018-12-10T16:48:04.337Z,99.90
2018-12-10T16:50:34.056Z,99.90
2018-12-10T16:53:03.567Z,99.90
2018-12-10T16:55:34.484Z,99.90
2018-12-10T16:58:03.961Z,99.90
2018-12-10T17:00:33.486Z,99.90
2018-12-10T17:03:03.029Z,99.90
2018-12-10T17:05:35.439Z,99.90
2018-12-10T17:08:05.040Z,99.90
2018-12-10T17:10:34.702Z,99.90
2018-12-10T17:13:04.258Z,99.90
2018-12-10T17:15:33.916Z,99.90
2018-12-10T17:18:03.810Z,99.90
2018-12-10T17:20:33.496Z,99.90
2018-12-10T17:23:03.086Z,99.90
2018-12-10T17:25:32.466Z,99.90
2018-12-10T17:28:01.982Z,99.90
2018-12-10T17:30:31.767Z,99.90
2018-12-10T17:33:01.221Z,99.90
2018-12-10T17:35:30.641Z,99.90
2018-12-10T17:38:00.315Z,99.90
2018-12-10T17:40:29.757Z,99.90
2018-12-10T17:42:59.237Z,99.90
2018-12-10T17:45:28.687Z,99.90
2018-12-10T17:47:58.190Z,99.90
2018-12-10T17:50:27.581Z,99.90
2018-12-10T17:52:57.193Z,99.90
2018-12-10T17:55:26.678Z,99.90
2018-12-10T17:57:56.199Z,99.90
2018-12-10T18:00:25.690Z,99.90
2018-12-10T18:02:55.614Z,99.90
2018-12-10T18:05:25.128Z,99.90
2018-12-10T18:07:54.642Z,99.90
2018-12-10T18:10:24.329Z,99.90
2018-12-10T18:12:53.802Z,99.90
2018-12-10T18:15:23.346Z,99.90
2018-12-10T18:17:52.892Z,99.90
2018-12-10T18:20:23.338Z,99.90
2018-12-10T18:22:52.962Z,99.90
2018-12-10T18:25:22.770Z,99.90
2018-12-10T18:27:52.533Z,99.90
2018-12-10T18:30:22.259Z,99.90
2018-12-10T18:32:52.064Z,99.90
2018-12-10T18:35:21.692Z,99.90
2018-12-10T18:37:51.224Z,99.90
2018-12-10T18:40:20.692Z,99.90
2018-12-10T18:42:50.392Z,99.90
2018-12-10T18:45:20.247Z,99.90
2018-12-10T18:47:49.902Z,99.90
2018-12-10T18:50:19.497Z,99.90
2018-12-10T18:52:49.265Z,99.90
2018-12-10T18:55:18.798Z,99.90
2018-12-10T18:57:48.384Z,99.90
2018-12-10T19:00:18.053Z,99.90
2018-12-10T19:02:47.657Z,99.90
2018-12-10T19:05:18.124Z,99.90
2018-12-10T19:07:47.968Z,99.90
2018-12-10T19:10:17.576Z,99.90
2018-12-10T19:12:47.356Z,99.90
2018-12-10T19:15:16.932Z,99.90
2018-12-10T19:17:46.497Z,99.90
2018-12-10T19:20:16.103Z,99.90
2018-12-10T19:22:45.671Z,99.90
2018-12-10T19:25:21.877Z,99.90
2018-12-10T19:27:51.411Z,99.90
2018-12-10T19:30:20.943Z,99.90
2018-12-10T19:32:50.494Z,99.90
2018-12-10T19:35:20.105Z,99.90
2018-12-10T19:37:49.624Z,99.90
2018-12-10T19:40:19.469Z,99.90
2018-12-10T19:42:49.095Z,99.90
2018-12-10T19:45:18.587Z,99.90
2018-12-10T19:47:48.233Z,99.90
2018-12-10T19:50:17.909Z,99.90
2018-12-10T19:52:47.539Z,99.90
2018-12-10T19:55:17.560Z,99.90
2018-12-10T19:57:47.258Z,99.90
2018-12-10T20:00:17.055Z,99.90
2018-12-10T20:02:46.574Z,99.90
2018-12-10T20:05:16.102Z,99.90
2018-12-10T20:07:45.866Z,99.90
2018-12-10T20:10:15.370Z,99.90
2018-12-10T20:12:44.948Z,99.90
2018-12-10T20:15:14.516Z,99.90
2018-12-10T20:17:44.021Z,99.90
2018-12-10T20:20:13.594Z,99.90
2018-12-10T20:22:43.398Z,99.90
2018-12-10T20:25:13.929Z,99.90
2018-12-10T20:27:43.910Z,99.90
2018-12-10T20:30:13.845Z,99.90
2018-12-10T20:32:43.928Z,99.90
2018-12-10T20:35:13.781Z,99.90
2018-12-10T20:37:43.603Z,99.90
2018-12-10T20:40:13.544Z,99.90
2018-12-10T20:42:43.136Z,99.90
2018-12-10T20:45:12.813Z,99.90
2018-12-10T20:47:42.591Z,99.90
2018-12-10T20:50:12.702Z,99.90
2018-12-10T20:52:42.335Z,99.90
2018-12-10T20:55:11.876Z,99.90
2018-12-10T20:57:41.857Z,99.90
2018-12-10T21:00:11.775Z,99.90
2018-12-10T21:02:41.272Z,99.90
2018-12-10T21:05:11.272Z,99.90
2018-12-10T21:07:40.829Z,99.90
2018-12-10T21:10:10.485Z,99.90
2018-12-10T21:12:40.309Z,99.90
2018-12-10T21:15:10.030Z,99.90
2018-12-10T21:17:39.578Z,99.90
2018-12-10T21:20:09.412Z,99.90
2018-12-10T21:22:38.922Z,99.90
2018-12-10T21:25:08.979Z,99.90
2018-12-10T21:27:38.528Z,99.90
2018-12-10T21:30:08.991Z,99.90
2018-12-10T21:32:38.658Z,99.90
2018-12-10T21:35:08.312Z,99.90
2018-12-10T21:37:37.812Z,99.90
2018-12-10T21:40:07.482Z,99.90
2018-12-10T21:42:38.954Z,99.90
2018-12-10T21:45:09.422Z,99.90
2018-12-10T21:47:39.823Z,99.90
2018-12-10T21:50:09.487Z,99.90
2018-12-10T21:52:39.251Z,99.90
2018-12-10T21:55:08.968Z,99.90
2018-12-10T21:57:38.490Z,99.90
2018-12-10T22:00:08.355Z,99.90
2018-12-10T22:02:37.888Z,99.90
2018-12-10T22:05:07.781Z,99.90
2018-12-10T22:07:37.500Z,99.90
2018-12-10T22:10:07.631Z,99.90
2018-12-10T22:12:38.881Z,99.90
2018-12-10T22:15:08.618Z,99.90
2018-12-10T22:17:38.303Z,99.90
2018-12-10T22:20:08.014Z,99.90
2018-12-10T22:22:37.457Z,99.90
2018-12-10T22:25:11.959Z,99.90
2018-12-10T22:27:41.622Z,99.90
2018-12-10T22:30:11.871Z,99.90
2018-12-10T22:32:42.036Z,99.90
2018-12-10T22:35:11.938Z,99.90
2018-12-10T22:37:43.172Z,99.90
2018-12-10T22:40:12.698Z,99.90
2018-12-10T22:42:44.159Z,99.90
2018-12-10T22:45:13.674Z,99.90
2018-12-10T22:47:43.222Z,99.90
2018-12-10T22:50:14.504Z,99.90
2018-12-10T22:52:44.113Z,99.90
2018-12-10T22:55:14.074Z,99.90
2018-12-10T22:57:43.579Z,99.90
2018-12-10T23:00:14.396Z,99.90
2018-12-10T23:02:44.103Z,99.90
2018-12-10T23:05:14.231Z,99.90
2018-12-10T23:07:43.711Z,99.90
2018-12-10T23:10:13.216Z,99.90
2018-12-10T23:12:43.154Z,99.90
2018-12-10T23:15:12.670Z,99.90
2018-12-10T23:17:42.157Z,99.90
2018-12-10T23:20:12.395Z,99.90
2018-12-10T23:22:41.876Z,99.90
2018-12-10T23:25:11.414Z,99.90
2018-12-10T23:27:41.140Z,99.90
2018-12-10T23:30:10.884Z,99.90
2018-12-10T23:32:40.338Z,99.90
2018-12-10T23:35:10.086Z,99.90
2018-12-10T23:37:39.577Z,99.90
2018-12-10T23:40:09.364Z,99.90
2018-12-10T23:45:29.688Z,99.90
2018-12-10T23:47:59.151Z,99.90
2018-12-10T23:50:28.674Z,99.90
2018-12-10T23:52:58.264Z,99.90
2018-12-10T23:55:27.728Z,99.90
2018-12-10T23:57:57.302Z,99.90
